Bath, IN (47010)

12:35 PM EDT on June 03, 2015 (GMT -0400)
OHDOT | | Change Station
CLOSE
Current Station
Personal Weather Station
Location: College Corner, OH
Elevation: 999 ft
Nearby Weather Stations

Elev 999 ft 39.55 °N, 84.80 °W | Updated 24 minutes ago

Overcast
Overcast
65 °F
Feels Like 65 °F
N
4
Wind Variable Wind from ENE
Gusts 8.0 mph

Today
High -- | Low -- °F
--% Chance of Precip.
Yesterday
High -- | Low -- °F
Precip. -- in
6:13 AM 9:01 PM
Full, 99% visible
Pressure 30.09 in
Visibility 7.0 miles
Clouds Mostly Cloudy 2200 ft
Overcast 2700 ft
Dew Point 55 °F
Humidity 69%
Rainfall in
Snow Depth Not available.
UV 3 out of 12
Pollen 8.10 out of 12
Air Quality Not available.
Flu Activity No Activity
METAR KHAO 031553Z AUTO 00000KT 7SM BKN022 OVC027 19/14 A3009 RMK AO2 SLP187 T01890139

More Conditions Fewer Conditions

Pressure 30.09 in
Visibility 7.0 miles
Clouds Mostly Cloudy 2200 ft
Overcast 2700 ft
Dew Point 55 °F
Humidity 69%
Rainfall in
Snow Depth Not available.
UV 3 out of 12
Pollen 8.10 out of 12
Air Quality Not available.
Flu Activity No Activity
METAR KHAO 031553Z AUTO 00000KT 7SM BKN022 OVC027 19/14 A3009 RMK AO2 SLP187 T01890139

More Conditions Fewer Conditions

10-Day Weather Forecast

×

Almanac

Astronomy

Jun. 03, 2015 Rise Set
Actual Time
Civil Twilight
Nautical Twilight
Astronomical Twilight
Moon
Length of Visible Light
Length of Day
Tomorrow will be .
, % of the Moon is Illuminated

Today's Extremes

State Highs State Lows

Community

WunderPhotos

Upload Photos

1,826,254 photos uploaded!

WunderBlogs® & News

Nearby

Air Quality

  Air Quality AQ Index Pollutant
Not available.

Snow Depth

Station Depth Elevation

Earthquake Activity

City Distance Mag. Time & Date
Minimum magnitude displayed is 2.5.

Coastal Water Temperatures

Place Temperature

Stations

Nearby Weather Stations

Station Location Temp. Windchill Dew Point Humidity Wind Precip. Elev Updated Type